createdAt,value
2019-04-28T00:01:55.012Z,12.01
2019-04-28T00:03:56.414Z,11.93
2019-04-28T00:05:57.910Z,11.87
2019-04-28T00:08:01.172Z,11.82
2019-04-28T00:10:05.794Z,11.76
2019-04-28T00:12:07.151Z,11.76
2019-04-28T00:14:08.919Z,11.72
2019-04-28T00:16:11.547Z,11.63
2019-04-28T00:18:13.202Z,11.62
2019-04-28T00:20:28.646Z,11.51
2019-04-28T00:22:34.569Z,11.48
2019-04-28T00:24:37.843Z,11.46
2019-04-28T00:26:46.854Z,11.39
2019-04-28T00:28:48.254Z,11.40
2019-04-28T00:30:51.609Z,11.39
2019-04-28T00:32:52.930Z,11.37
2019-04-28T00:34:54.360Z,11.34
2019-04-28T00:36:57.622Z,11.39
2019-04-28T00:38:59.056Z,11.34
2019-04-28T00:41:02.287Z,11.39
2019-04-28T00:43:03.729Z,11.26
2019-04-28T00:45:06.638Z,11.18
2019-04-28T00:47:07.974Z,11.16
2019-04-28T00:49:09.379Z,10.97
2019-04-28T00:51:11.587Z,10.93
2019-04-28T00:53:13.105Z,11.00
2019-04-28T00:55:14.517Z,10.94
2019-04-28T00:57:16.213Z,10.92
2019-04-28T00:59:17.587Z,10.84
2019-04-28T01:01:21.335Z,10.73
2019-04-28T01:03:23.963Z,10.64
2019-04-28T01:05:25.415Z,10.57
2019-04-28T01:07:27.078Z,10.54
2019-04-28T01:09:29.115Z,10.43
2019-04-28T01:11:31.670Z,10.43
2019-04-28T01:13:33.142Z,10.51
2019-04-28T01:15:39.710Z,10.45
2019-04-28T01:17:43.126Z,10.44
2019-04-28T01:19:49.643Z,10.42
2019-04-28T01:21:56.981Z,10.42
2019-04-28T01:23:59.824Z,10.31
2019-04-28T01:26:01.354Z,10.29
2019-04-28T01:28:02.722Z,10.26
2019-04-28T01:30:10.605Z,10.22
2019-04-28T01:32:24.608Z,10.20
2019-04-28T01:34:25.975Z,10.26
2019-04-28T01:36:27.351Z,10.20
2019-04-28T01:38:30.249Z,10.19
2019-04-28T01:40:31.807Z,10.18
2019-04-28T01:42:33.172Z,10.22
2019-04-28T01:44:34.559Z,10.22
2019-04-28T01:46:35.912Z,10.18
2019-04-28T01:48:37.322Z,10.20
2019-04-28T01:50:40.018Z,10.17
2019-04-28T01:52:41.558Z,10.15
2019-04-28T01:54:42.935Z,10.19
2019-04-28T01:56:44.287Z,10.13
2019-04-28T01:58:45.691Z,10.14
2019-04-28T02:00:47.064Z,10.19
2019-04-28T02:02:50.369Z,10.19
2019-04-28T02:04:52.136Z,10.19
2019-04-28T02:06:53.545Z,10.13
2019-04-28T02:08:54.973Z,10.15
2019-04-28T02:10:56.412Z,10.19
2019-04-28T02:12:57.773Z,10.16
2019-04-28T02:15:00.896Z,10.12
2019-04-28T02:17:03.100Z,10.10
2019-04-28T02:19:04.530Z,10.13
2019-04-28T02:21:24.363Z,10.14
2019-04-28T02:23:30.283Z,10.17
2019-04-28T02:25:31.707Z,10.12
2019-04-28T02:27:33.068Z,10.18
2019-04-28T02:29:34.496Z,10.16
2019-04-28T02:31:35.919Z,10.11
2019-04-28T02:33:37.342Z,10.19
2019-04-28T02:35:41.453Z,10.19
2019-04-28T02:37:42.068Z,10.21
2019-04-28T02:39:43.452Z,10.19
2019-04-28T02:41:44.837Z,10.16
2019-04-28T02:43:46.270Z,10.19
2019-04-28T02:45:52.961Z,10.21
2019-04-28T02:47:53.552Z,10.15
2019-04-28T02:49:56.846Z,10.18
2019-04-28T02:52:10.736Z,10.08
2019-04-28T02:54:12.616Z,10.12
2019-04-28T02:56:14.011Z,10.07
2019-04-28T02:58:15.384Z,10.09
2019-04-28T03:00:17.082Z,10.10
2019-04-28T03:02:20.747Z,10.07
2019-04-28T03:04:21.851Z,10.13
2019-04-28T03:06:23.391Z,10.13
2019-04-28T03:08:24.852Z,10.07
2019-04-28T03:10:26.822Z,10.04
2019-04-28T03:12:31.373Z,10.04
2019-04-28T03:14:32.620Z,10.13
2019-04-28T03:16:34.040Z,10.08
2019-04-28T03:18:35.714Z,9.99
2019-04-28T03:20:37.122Z,10.02
2019-04-28T03:22:40.839Z,9.92
2019-04-28T03:24:43.164Z,9.94
2019-04-28T03:27:03.572Z,10.03
2019-04-28T03:29:23.465Z,9.99
2019-04-28T03:32:01.644Z,9.91
2019-04-28T03:33:41.756Z,9.93
2019-04-28T03:35:43.494Z,9.98
2019-04-28T03:37:42.559Z,9.92
2019-04-28T03:39:43.928Z,9.91
2019-04-28T03:41:45.318Z,9.89
2019-04-28T03:43:46.717Z,9.94
2019-04-28T03:45:50.396Z,9.91
2019-04-28T03:47:51.892Z,9.93
2019-04-28T03:49:53.340Z,9.92
2019-04-28T03:51:54.727Z,9.84
2019-04-28T03:53:56.080Z,9.87
2019-04-28T03:55:57.494Z,9.85
2019-04-28T03:58:00.976Z,9.87
2019-04-28T04:00:06.094Z,9.93
2019-04-28T04:02:07.812Z,9.75
2019-04-28T04:04:11.313Z,9.93
2019-04-28T04:06:12.457Z,9.85
2019-04-28T04:08:13.921Z,9.91
2019-04-28T04:10:25.612Z,9.89
2019-04-28T04:12:31.612Z,9.80
2019-04-28T04:14:41.330Z,9.87
2019-04-28T04:16:44.696Z,9.85
2019-04-28T04:18:53.860Z,9.84
2019-04-28T04:20:54.182Z,9.73
2019-04-28T04:22:55.553Z,9.81
2019-04-28T04:24:56.969Z,9.73
2019-04-28T04:27:00.721Z,9.70
2019-04-28T04:29:01.833Z,9.67
2019-04-28T04:31:03.538Z,9.60
2019-04-28T04:33:05.031Z,9.69
2019-04-28T04:35:06.421Z,9.62
2019-04-28T04:37:10.432Z,9.60
2019-04-28T04:39:11.225Z,9.64
2019-04-28T04:41:12.579Z,9.64
2019-04-28T04:43:14.017Z,9.67
2019-04-28T04:45:15.373Z,9.68
2019-04-28T04:47:16.754Z,9.68
2019-04-28T04:49:21.232Z,9.76
2019-04-28T04:51:21.954Z,9.96
2019-04-28T04:53:23.519Z,10.04
2019-04-28T04:55:24.881Z,10.14
2019-04-28T04:57:26.298Z,10.04
2019-04-28T04:59:30.155Z,10.12
2019-04-28T05:01:33.751Z,10.10
2019-04-28T05:03:55.218Z,10.00
2019-04-28T05:05:56.600Z,10.12
2019-04-28T05:07:58.035Z,10.08
2019-04-28T05:09:59.611Z,10.23
2019-04-28T05:12:01.108Z,10.19
2019-04-28T05:14:03.523Z,10.31
2019-04-28T05:16:04.907Z,10.32
2019-04-28T05:18:06.294Z,10.26
2019-04-28T05:20:09.555Z,10.31
2019-04-28T05:22:12.059Z,10.41
2019-04-28T05:24:32.001Z,10.51
2019-04-28T05:26:33.387Z,10.55
2019-04-28T05:28:36.843Z,10.64
2019-04-28T05:30:39.768Z,10.68
2019-04-28T05:32:45.506Z,10.70
2019-04-28T05:34:46.823Z,10.74
2019-04-28T05:36:50.338Z,10.76
2019-04-28T05:38:51.741Z,10.83
2019-04-28T05:40:53.211Z,10.96
2019-04-28T05:42:57.601Z,10.97
2019-04-28T05:44:59.936Z,11.05
2019-04-28T05:47:01.528Z,11.03
2019-04-28T05:49:05.164Z,11.08
2019-04-28T05:51:24.990Z,11.20
2019-04-28T05:53:30.916Z,11.38
2019-04-28T05:55:34.231Z,11.52
2019-04-28T05:57:40.174Z,11.66
2019-04-28T05:59:50.531Z,11.77
2019-04-28T06:01:56.753Z,11.77
2019-04-28T06:03:58.140Z,11.81
2019-04-28T06:06:00.062Z,11.80
2019-04-28T06:08:15.355Z,11.80
2019-04-28T06:10:16.728Z,11.73
2019-04-28T06:12:20.129Z,11.72
2019-04-28T06:14:21.775Z,11.64
2019-04-28T06:16:23.139Z,11.52
2019-04-28T06:18:24.526Z,11.47
2019-04-28T06:20:25.921Z,11.60
2019-04-28T06:22:27.315Z,11.72
2019-04-28T06:24:28.745Z,11.71
2019-04-28T06:26:30.421Z,11.77
2019-04-28T06:28:31.794Z,11.79
2019-04-28T06:30:33.199Z,11.92
2019-04-28T06:32:34.595Z,11.95
2019-04-28T06:34:35.967Z,12.07
2019-04-28T06:36:37.358Z,12.13
2019-04-28T06:38:38.764Z,12.13
2019-04-28T06:40:40.133Z,12.08
2019-04-28T06:42:41.585Z,12.09
2019-04-28T06:44:42.972Z,12.11
2019-04-28T06:46:44.378Z,12.10
2019-04-28T06:48:45.767Z,12.17
2019-04-28T06:50:47.153Z,12.18
2019-04-28T06:52:48.608Z,12.32
2019-04-28T06:54:49.990Z,12.42
2019-04-28T06:56:51.622Z,12.55
2019-04-28T06:58:59.148Z,12.65
2019-04-28T07:00:56.345Z,12.70
2019-04-28T07:02:57.847Z,12.56
2019-04-28T07:05:01.908Z,12.68
2019-04-28T07:07:03.293Z,12.57
2019-04-28T07:09:05.578Z,12.69
2019-04-28T07:11:06.994Z,12.72
2019-04-28T07:13:08.418Z,12.83
2019-04-28T07:15:10.810Z,12.80
2019-04-28T07:17:12.185Z,12.78
2019-04-28T07:19:13.550Z,12.79
2019-04-28T07:21:33.770Z,12.83
2019-04-28T07:23:36.887Z,12.81
2019-04-28T07:25:38.299Z,12.80
2019-04-28T07:27:39.746Z,12.82
2019-04-28T07:29:41.174Z,12.95
2019-04-28T07:31:43.362Z,12.81
2019-04-28T07:33:44.758Z,12.81
2019-04-28T07:35:46.213Z,12.86
2019-04-28T07:37:47.703Z,12.65
2019-04-28T07:39:49.074Z,12.51
2019-04-28T07:41:50.444Z,12.47
2019-04-28T07:43:51.890Z,12.32
2019-04-28T07:45:53.260Z,12.38
2019-04-28T07:47:54.815Z,12.35
2019-04-28T07:49:56.211Z,12.45
2019-04-28T07:52:08.482Z,12.24
2019-04-28T07:54:11.772Z,12.41
2019-04-28T07:56:13.169Z,12.57
2019-04-28T07:58:14.850Z,12.52
2019-04-28T08:00:18.614Z,12.46
2019-04-28T08:02:20.143Z,12.40
2019-04-28T08:04:21.572Z,12.21
2019-04-28T08:06:22.933Z,12.09
2019-04-28T08:08:24.331Z,11.96
2019-04-28T08:10:25.761Z,11.80
2019-04-28T08:12:27.150Z,11.88
2019-04-28T08:14:28.548Z,11.92
2019-04-28T08:16:29.955Z,11.93
2019-04-28T08:18:31.701Z,11.97
2019-04-28T08:20:33.352Z,11.93
2019-04-28T08:22:34.781Z,11.90
2019-04-28T08:24:36.176Z,11.92
2019-04-28T08:26:37.603Z,12.02
2019-04-28T08:28:39.031Z,12.11
2019-04-28T08:30:40.414Z,12.17
2019-04-28T08:32:49.803Z,12.25
2019-04-28T08:34:51.224Z,12.23
2019-04-28T08:36:52.816Z,12.26
2019-04-28T08:38:54.440Z,12.35
2019-04-28T08:40:56.051Z,12.46
2019-04-28T08:42:57.425Z,12.62
2019-04-28T08:44:58.830Z,12.56
2019-04-28T08:47:00.221Z,12.57
2019-04-28T08:49:01.587Z,12.75
2019-04-28T08:51:03.404Z,12.77
2019-04-28T08:53:04.931Z,12.72
2019-04-28T08:55:07.039Z,12.65
2019-04-28T08:57:08.432Z,12.59
2019-04-28T08:59:09.816Z,12.48
2019-04-28T09:01:11.313Z,12.39
2019-04-28T09:03:12.684Z,12.43
2019-04-28T09:05:14.245Z,12.39
2019-04-28T09:07:15.674Z,12.34
2019-04-28T09:09:20.909Z,12.31
2019-04-28T09:11:22.275Z,12.18
2019-04-28T09:13:23.735Z,12.26
2019-04-28T09:15:25.105Z,12.26
2019-04-28T09:17:26.497Z,12.22
2019-04-28T09:19:27.913Z,12.20
2019-04-28T09:21:29.275Z,12.12
2019-04-28T09:23:30.690Z,12.13
2019-04-28T09:25:32.050Z,12.25
2019-04-28T09:27:33.631Z,12.37
2019-04-28T09:29:35.242Z,12.45
2019-04-28T09:31:36.611Z,12.59
2019-04-28T09:33:37.992Z,12.85
2019-04-28T09:35:39.409Z,13.09
2019-04-28T09:37:40.941Z,13.54
2019-04-28T09:39:44.220Z,13.68
2019-04-28T09:41:47.529Z,13.61
2019-04-28T09:44:03.071Z,13.51
2019-04-28T09:46:06.336Z,13.31
2019-04-28T09:48:07.746Z,13.06
2019-04-28T09:50:09.309Z,12.97
2019-04-28T09:52:10.696Z,12.99
2019-04-28T09:54:12.144Z,13.04
2019-04-28T09:56:13.525Z,13.10
2019-04-28T09:58:14.891Z,13.09
2019-04-28T10:00:16.888Z,13.14
2019-04-28T10:02:18.256Z,13.07
2019-04-28T10:04:19.679Z,13.14
2019-04-28T10:06:21.045Z,13.19
2019-04-28T10:08:22.412Z,13.33
2019-04-28T10:10:23.920Z,13.45
2019-04-28T10:12:27.197Z,13.56
2019-04-28T10:14:28.615Z,13.87
2019-04-28T10:16:30.037Z,14.16
2019-04-28T10:18:31.446Z,14.20
2019-04-28T10:20:32.826Z,14.40
2019-04-28T10:22:34.955Z,14.44
2019-04-28T10:24:36.335Z,14.19
2019-04-28T10:26:37.699Z,14.25
2019-04-28T10:28:39.124Z,14.50
2019-04-28T10:30:40.715Z,14.69
2019-04-28T10:32:42.345Z,14.36
2019-04-28T10:34:54.370Z,14.04
2019-04-28T10:36:47.168Z,13.88
2019-04-28T10:38:50.468Z,13.76
2019-04-28T10:40:56.547Z,13.78
2019-04-28T10:42:57.925Z,13.95
2019-04-28T10:44:59.966Z,14.21
2019-04-28T10:47:01.347Z,14.32
2019-04-28T10:49:02.810Z,14.34
2019-04-28T10:51:04.208Z,14.17
2019-04-28T10:53:05.570Z,13.92
2019-04-28T10:55:07.101Z,13.83
2019-04-28T10:57:08.526Z,13.68
2019-04-28T10:59:10.106Z,13.33
2019-04-28T11:01:11.915Z,13.21
2019-04-28T11:03:13.293Z,13.16
2019-04-28T11:05:16.574Z,13.19
2019-04-28T11:07:19.111Z,13.35
2019-04-28T11:09:34.591Z,13.64
2019-04-28T11:11:36.343Z,14.34
2019-04-28T11:13:37.839Z,14.50
2019-04-28T11:15:39.223Z,14.72
2019-04-28T11:17:40.696Z,14.88
2019-04-28T11:19:42.165Z,14.79
2019-04-28T11:21:43.591Z,14.74
2019-04-28T11:23:44.955Z,14.91
2019-04-28T11:25:46.319Z,15.07
2019-04-28T11:27:47.735Z,15.15
2019-04-28T11:29:49.093Z,14.90
2019-04-28T11:31:50.587Z,14.95
2019-04-28T11:34:02.833Z,14.72
2019-04-28T11:36:04.631Z,14.65
2019-04-28T11:38:06.038Z,14.88
2019-04-28T11:40:07.916Z,15.43
2019-04-28T11:42:09.286Z,16.07
2019-04-28T11:44:10.976Z,16.34
2019-04-28T11:46:14.289Z,16.77
2019-04-28T11:48:15.706Z,16.29
2019-04-28T11:50:17.180Z,16.34
2019-04-28T11:52:18.565Z,16.10
2019-04-28T11:54:19.974Z,16.02
2019-04-28T11:56:21.411Z,15.77
2019-04-28T11:58:22.775Z,15.59
2019-04-28T12:00:26.157Z,15.39
2019-04-28T12:02:27.563Z,15.46
2019-04-28T12:04:28.957Z,15.48
2019-04-28T12:06:30.375Z,15.33
2019-04-28T12:08:31.795Z,15.32
2019-04-28T12:10:50.248Z,15.33
2019-04-28T12:12:59.490Z,15.41
2019-04-28T12:15:02.762Z,15.60
2019-04-28T12:17:06.074Z,15.87
2019-04-28T12:19:09.355Z,16.30
2019-04-28T12:21:10.774Z,16.69
2019-04-28T12:23:12.187Z,16.79
2019-04-28T12:25:13.649Z,17.31
2019-04-28T12:27:15.038Z,17.38
2019-04-28T12:29:16.446Z,17.40
2019-04-28T12:31:17.816Z,17.42
2019-04-28T12:33:19.229Z,16.82
2019-04-28T12:35:20.636Z,17.30
2019-04-28T12:37:22.072Z,17.43
2019-04-28T12:39:23.448Z,17.28
2019-04-28T12:41:24.813Z,16.96
2019-04-28T12:43:26.228Z,16.31
2019-04-28T12:45:34.973Z,15.96
2019-04-28T12:47:30.986Z,15.71
2019-04-28T12:49:43.283Z,15.64
2019-04-28T12:51:44.701Z,15.54
2019-04-28T12:53:46.090Z,15.67
2019-04-28T12:55:47.508Z,15.70
2019-04-28T12:57:48.993Z,15.77
2019-04-28T13:00:04.189Z,15.99
2019-04-28T13:02:13.409Z,16.53
2019-04-28T13:04:33.267Z,17.01
2019-04-28T13:06:34.660Z,16.98
2019-04-28T13:08:36.192Z,17.05
2019-04-28T13:10:37.545Z,16.85
2019-04-28T13:12:38.968Z,16.65
2019-04-28T13:14:40.369Z,16.60
2019-04-28T13:16:41.762Z,16.82
2019-04-28T13:18:43.250Z,16.97
2019-04-28T13:20:44.695Z,16.69
2019-04-28T13:22:46.061Z,16.79
2019-04-28T13:24:47.451Z,16.95
2019-04-28T13:26:48.859Z,16.96
2019-04-28T13:28:50.239Z,17.11
2019-04-28T13:30:51.671Z,17.37
2019-04-28T13:32:53.059Z,16.92
2019-04-28T13:34:54.453Z,16.64
2019-04-28T13:36:55.882Z,16.58
2019-04-28T13:38:59.592Z,16.46
2019-04-28T13:41:01.055Z,16.47
2019-04-28T13:43:02.425Z,16.36
2019-04-28T13:45:09.331Z,16.35
2019-04-28T13:47:10.696Z,16.43
2019-04-28T13:49:14.016Z,16.35
2019-04-28T13:51:15.507Z,16.36
2019-04-28T13:53:16.965Z,16.08
2019-04-28T13:55:22.939Z,15.99
2019-04-28T13:57:24.382Z,16.11
2019-04-28T13:59:25.833Z,15.97
2019-04-28T14:01:44.605Z,15.96
2019-04-28T14:03:50.885Z,15.93
2019-04-28T14:06:09.476Z,16.06
2019-04-28T14:08:11.008Z,16.09
2019-04-28T14:10:12.675Z,16.28
2019-04-28T14:12:16.947Z,16.37
2019-04-28T14:14:18.387Z,16.92
2019-04-28T14:16:20.117Z,16.92
2019-04-28T14:18:21.611Z,17.07
2019-04-28T14:20:22.991Z,17.10
2019-04-28T14:22:24.389Z,17.18
2019-04-28T14:24:25.778Z,17.19
2019-04-28T14:26:27.156Z,17.07
2019-04-28T14:28:28.579Z,17.40
2019-04-28T14:30:30.053Z,17.39
2019-04-28T14:32:31.462Z,17.41
2019-04-28T14:34:32.886Z,17.37
2019-04-28T14:36:41.831Z,17.60
2019-04-28T14:38:37.573Z,17.56
2019-04-28T14:40:38.935Z,17.44
2019-04-28T14:42:40.322Z,17.49
2019-04-28T14:44:41.726Z,17.55
2019-04-28T14:46:43.132Z,17.47
2019-04-28T14:48:44.635Z,17.24
2019-04-28T14:50:46.059Z,17.42
2019-04-28T14:52:47.507Z,17.18
2019-04-28T14:54:49.023Z,17.07
2019-04-28T14:56:50.448Z,17.07
2019-04-28T14:58:51.908Z,16.99
2019-04-28T15:01:07.348Z,16.99
2019-04-28T15:03:10.629Z,16.77
2019-04-28T15:05:19.648Z,16.72
2019-04-28T15:07:40.005Z,16.73
2019-04-28T15:10:00.079Z,16.81
2019-04-28T15:12:03.447Z,16.83
2019-04-28T15:14:04.850Z,16.82
2019-04-28T15:16:06.650Z,17.05
2019-04-28T15:18:08.103Z,17.13
2019-04-28T15:20:09.600Z,17.07
2019-04-28T15:22:11.021Z,17.19
2019-04-28T15:24:12.409Z,16.97
2019-04-28T15:26:13.796Z,16.92
2019-04-28T15:28:15.192Z,16.76
2019-04-28T15:30:16.586Z,16.54
2019-04-28T15:32:17.961Z,16.50
2019-04-28T15:34:19.331Z,16.48
2019-04-28T15:36:20.748Z,16.48
2019-04-28T15:38:22.219Z,16.55
2019-04-28T15:40:23.579Z,16.65
2019-04-28T15:42:25.115Z,16.46
2019-04-28T15:44:26.475Z,16.39
2019-04-28T15:46:27.907Z,16.44
2019-04-28T15:48:29.471Z,16.58
2019-04-28T15:50:30.904Z,16.35
2019-04-28T15:52:32.394Z,16.31
2019-04-28T15:54:33.808Z,16.46
2019-04-28T15:56:37.096Z,16.33
2019-04-28T15:58:39.110Z,16.30
2019-04-28T16:00:40.478Z,16.34
2019-04-28T16:02:41.860Z,16.27
2019-04-28T16:04:43.280Z,16.08
2019-04-28T16:06:44.672Z,16.09
2019-04-28T16:08:46.047Z,16.28
2019-04-28T16:10:47.471Z,16.25
2019-04-28T16:12:49.006Z,16.25
2019-04-28T16:14:50.395Z,16.33
2019-04-28T16:16:51.798Z,16.27
2019-04-28T16:18:53.157Z,16.26
2019-04-28T16:20:54.528Z,16.35
2019-04-28T16:22:55.943Z,16.33
2019-04-28T16:24:57.306Z,16.16
2019-04-28T16:26:58.704Z,16.33
2019-04-28T16:29:00.126Z,16.17
2019-04-28T16:31:01.513Z,16.11
2019-04-28T16:33:03.017Z,15.87
2019-04-28T16:35:04.668Z,15.76
2019-04-28T16:37:06.589Z,15.69
2019-04-28T16:39:08.204Z,15.75
2019-04-28T16:41:09.588Z,15.84
2019-04-28T16:43:11.024Z,15.68
2019-04-28T16:45:12.686Z,15.86
2019-04-28T16:47:14.091Z,15.89
2019-04-28T16:49:15.493Z,15.71
2019-04-28T16:51:16.858Z,15.40
2019-04-28T16:53:18.255Z,15.43
2019-04-28T16:55:21.601Z,15.56
2019-04-28T16:57:33.806Z,15.53
2019-04-28T16:59:52.070Z,15.62
2019-04-28T17:02:10.333Z,15.73
2019-04-28T17:04:11.764Z,15.63
2019-04-28T17:06:13.147Z,15.70
2019-04-28T17:08:14.538Z,15.59
2019-04-28T17:10:16.059Z,15.54
2019-04-28T17:12:17.431Z,15.41
2019-04-28T17:14:18.796Z,15.25
2019-04-28T17:16:20.197Z,15.23
2019-04-28T17:18:21.559Z,15.06
2019-04-28T17:20:24.498Z,15.09
2019-04-28T17:22:25.916Z,15.12
2019-04-28T17:24:27.310Z,15.11
2019-04-28T17:26:28.711Z,15.19
2019-04-28T17:28:30.216Z,15.06
2019-04-28T17:30:31.877Z,15.07
2019-04-28T17:32:33.242Z,15.06
2019-04-28T17:34:34.646Z,15.00
2019-04-28T17:36:36.071Z,14.84
2019-04-28T17:38:37.463Z,14.82
2019-04-28T17:40:38.830Z,14.76
2019-04-28T17:42:40.588Z,14.74
2019-04-28T17:44:41.961Z,14.61
2019-04-28T17:46:43.356Z,14.61
2019-04-28T17:48:46.667Z,14.53
2019-04-28T17:50:48.131Z,14.47
2019-04-28T17:52:54.202Z,14.25
2019-04-28T17:54:56.172Z,14.08
2019-04-28T17:56:57.540Z,14.14
2019-04-28T17:58:58.948Z,14.03
2019-04-28T18:01:02.311Z,14.08
2019-04-28T18:03:11.829Z,14.01
2019-04-28T18:05:21.366Z,14.00
2019-04-28T18:07:30.480Z,14.01
2019-04-28T18:09:31.835Z,13.92
2019-04-28T18:11:33.521Z,13.74
2019-04-28T18:13:34.941Z,13.82
2019-04-28T18:15:54.977Z,13.77
2019-04-28T18:18:00.927Z,13.62
2019-04-28T18:20:04.594Z,13.58
2019-04-28T18:22:06.012Z,13.47
2019-04-28T18:24:07.392Z,13.54
2019-04-28T18:26:08.773Z,13.42
2019-04-28T18:28:10.306Z,13.29
2019-04-28T18:30:14.774Z,13.18
2019-04-28T18:32:30.238Z,13.13
2019-04-28T18:34:45.543Z,13.06
2019-04-28T18:36:51.708Z,12.96
2019-04-28T18:39:00.823Z,12.97
2019-04-28T18:41:10.281Z,12.95
2019-04-28T18:43:13.545Z,13.01
2019-04-28T18:45:17.453Z,12.88
2019-04-28T18:47:18.821Z,12.79
2019-04-28T18:49:20.250Z,12.71
2019-04-28T18:51:21.944Z,12.69
2019-04-28T18:53:23.333Z,12.70
2019-04-28T18:55:24.831Z,12.70
2019-04-28T18:57:26.233Z,12.68
2019-04-28T18:59:27.606Z,12.60
2019-04-28T19:01:33.536Z,12.63
2019-04-28T19:03:34.908Z,12.72
2019-04-28T19:05:38.222Z,12.64
2019-04-28T19:07:47.432Z,12.62
2019-04-28T19:09:53.317Z,12.63
2019-04-28T19:11:59.287Z,12.59
2019-04-28T19:14:02.555Z,12.58
2019-04-28T19:16:22.605Z,12.44
2019-04-28T19:18:25.867Z,12.45
2019-04-28T19:20:27.308Z,12.46
2019-04-28T19:22:29.121Z,12.50
2019-04-28T19:24:30.494Z,12.46
2019-04-28T19:26:31.852Z,12.40
2019-04-28T19:28:33.280Z,12.49
2019-04-28T19:30:34.638Z,12.43
2019-04-28T19:32:36.063Z,12.39
2019-04-28T19:34:37.464Z,12.41
2019-04-28T19:36:38.851Z,12.41
2019-04-28T19:38:40.427Z,12.45
2019-04-28T19:40:41.785Z,12.37
2019-04-28T19:42:43.488Z,12.35
2019-04-28T19:44:44.982Z,12.43
2019-04-28T19:46:46.344Z,12.52
2019-04-28T19:48:47.757Z,12.57
2019-04-28T19:50:49.160Z,12.58
2019-04-28T19:52:50.575Z,12.57
2019-04-28T19:55:02.818Z,12.60
2019-04-28T19:57:06.106Z,12.56
2019-04-28T19:59:12.196Z,12.27
2019-04-28T20:01:15.479Z,12.23
2019-04-28T20:03:17.296Z,12.21
2019-04-28T20:05:18.677Z,12.05
2019-04-28T20:07:20.133Z,11.91
2019-04-28T20:09:21.584Z,11.85
2019-04-28T20:11:22.969Z,11.79
2019-04-28T20:13:24.430Z,11.66
2019-04-28T20:15:25.826Z,11.56
2019-04-28T20:17:27.608Z,11.48
2019-04-28T20:19:29.096Z,11.51
2019-04-28T20:21:30.523Z,11.61
2019-04-28T20:23:32.092Z,11.77
2019-04-28T20:25:33.574Z,11.78
2019-04-28T20:27:34.997Z,11.71
2019-04-28T20:29:36.409Z,11.78
2019-04-28T20:31:37.882Z,11.71
2019-04-28T20:33:39.303Z,11.66
2019-04-28T20:35:51.630Z,11.71
2019-04-28T20:38:06.891Z,11.63
2019-04-28T20:40:10.393Z,11.53
2019-04-28T20:42:30.532Z,11.50
2019-04-28T20:44:31.995Z,11.43
2019-04-28T20:46:33.476Z,11.34
2019-04-28T20:48:35.027Z,11.44
2019-04-28T20:50:36.451Z,11.41
2019-04-28T20:52:37.872Z,11.45
2019-04-28T20:54:39.374Z,11.57
2019-04-28T20:56:40.925Z,11.53
2019-04-28T20:58:42.309Z,11.27
2019-04-28T21:00:44.302Z,11.09
2019-04-28T21:02:45.909Z,11.00
2019-04-28T21:04:47.310Z,10.97
2019-04-28T21:06:48.744Z,11.14
2019-04-28T21:08:50.137Z,11.23
2019-04-28T21:10:51.533Z,11.31
2019-04-28T21:12:52.953Z,11.13
2019-04-28T21:14:54.398Z,11.13
2019-04-28T21:16:55.864Z,11.06
2019-04-28T21:18:57.283Z,11.05
2019-04-28T21:20:58.725Z,11.15
2019-04-28T21:23:00.310Z,11.18
2019-04-28T21:25:04.105Z,11.28
2019-04-28T21:27:05.507Z,11.08
2019-04-28T21:29:06.933Z,10.97
2019-04-28T21:31:08.352Z,10.89
2019-04-28T21:33:09.783Z,10.86
2019-04-28T21:35:11.359Z,10.93
2019-04-28T21:37:12.750Z,11.14
2019-04-28T21:39:14.171Z,11.16
2019-04-28T21:41:15.550Z,11.15
2019-04-28T21:43:21.676Z,11.22
2019-04-28T21:45:25.010Z,10.99
2019-04-28T21:47:28.452Z,10.98
2019-04-28T21:49:31.836Z,11.06
2019-04-28T21:51:33.248Z,11.12
2019-04-28T21:53:34.793Z,10.88
2019-04-28T21:55:36.273Z,10.85
2019-04-28T21:57:37.735Z,10.98
2019-04-28T21:59:39.198Z,11.03
2019-04-28T22:01:40.869Z,10.97
2019-04-28T22:03:42.448Z,10.88
2019-04-28T22:05:43.863Z,10.96
2019-04-28T22:07:45.380Z,10.92
2019-04-28T22:09:46.759Z,10.76
2019-04-28T22:11:48.133Z,10.81
2019-04-28T22:13:49.592Z,10.78
2019-04-28T22:15:51.023Z,10.78
2019-04-28T22:17:52.545Z,10.75
2019-04-28T22:19:53.943Z,10.73
2019-04-28T22:21:55.417Z,10.76
2019-04-28T22:24:10.718Z,10.73
2019-04-28T22:26:14.042Z,10.79
2019-04-28T22:28:15.426Z,10.92
2019-04-28T22:30:17.036Z,10.84
2019-04-28T22:32:18.426Z,10.92
2019-04-28T22:34:20.137Z,10.84
2019-04-28T22:36:21.615Z,10.82
2019-04-28T22:38:22.999Z,10.99
2019-04-28T22:40:24.419Z,10.83
2019-04-28T22:42:25.842Z,10.82
2019-04-28T22:44:27.235Z,10.75
2019-04-28T22:46:28.644Z,10.67
2019-04-28T22:48:30.057Z,10.52
2019-04-28T22:50:38.802Z,10.58
2019-04-28T22:52:40.242Z,10.58
2019-04-28T22:54:49.638Z,10.54
2019-04-28T22:56:52.930Z,10.51
2019-04-28T22:58:56.252Z,10.37
2019-04-28T23:01:02.732Z,10.41
2019-04-28T23:03:04.335Z,10.38
2019-04-28T23:05:07.834Z,10.38
2019-04-28T23:07:09.294Z,10.24
2019-04-28T23:09:13.022Z,10.17
2019-04-28T23:11:14.961Z,10.25
2019-04-28T23:13:16.426Z,10.24
2019-04-28T23:15:17.999Z,10.30
2019-04-28T23:17:20.074Z,10.43
2019-04-28T23:19:23.402Z,10.32
2019-04-28T23:21:32.739Z,10.22
2019-04-28T23:23:34.134Z,10.50
2019-04-28T23:25:35.544Z,10.57
2019-04-28T23:27:36.945Z,10.44
2019-04-28T23:29:38.335Z,10.37
2019-04-28T23:31:39.851Z,10.33
2019-04-28T23:33:41.306Z,10.21
2019-04-28T23:35:43.113Z,10.23
2019-04-28T23:37:44.551Z,10.20
2019-04-28T23:39:45.934Z,10.16
2019-04-28T23:41:58.194Z,10.16
2019-04-28T23:43:59.601Z,10.32
2019-04-28T23:46:01.015Z,10.19
2019-04-28T23:48:02.579Z,10.09
2019-04-28T23:50:07.111Z,10.18
2019-04-28T23:52:10.387Z,10.25
2019-04-28T23:54:11.799Z,10.25
2019-04-28T23:56:13.225Z,10.28
2019-04-28T23:58:14.605Z,10.19
